Time;durP1;ratioP1;P1;durP2;ratioP2;P2;SDS_P1;SDS_P2;PMS_P1;PMS_P2;Temp;Humidity;BMP_temperature;BMP_pressure;BME280_temperature;BME280_humidity;BME280_pressure;Samples;Min_cycle;Max_cycle;Signal;HPM_P1;HPM_P2
2022/01/06 00:01:38;;;;;;;4.95;1.85;;;4.30;73.50;;;;;;5076721;28;20032;-69
2022/01/06 00:04:04;;;;;;;6.75;2.20;;;4.30;73.50;;;;;;5076244;28;20043;-69
2022/01/06 00:06:32;;;;;;;6.10;2.03;;;4.30;73.70;;;;;;5076965;28;20025;-69
2022/01/06 00:08:59;;;;;;;9.77;2.65;;;4.20;73.70;;;;;;5076538;28;20052;-69
2022/01/06 00:11:25;;;;;;;9.68;2.53;;;4.30;73.50;;;;;;5077073;28;20029;-68
2022/01/06 00:24:15;;;;;;;5.75;2.30;;;4.30;73.90;;;;;;5076719;28;20032;-69
2022/01/06 00:26:41;;;;;;;8.40;2.30;;;4.30;73.90;;;;;;5076597;28;20036;-70
2022/01/06 00:29:07;;;;;;;6.57;2.67;;;4.30;73.90;;;;;;5077571;28;20048;-70
2022/01/06 00:31:33;;;;;;;8.82;2.47;;;4.30;73.70;;;;;;5079364;28;20380;-69
2022/01/06 00:34:00;;;;;;;4.85;2.05;;;4.30;74.10;;;;;;5077220;28;20439;-69
2022/01/06 00:36:26;;;;;;;5.22;1.85;;;4.30;74.00;;;;;;5058300;28;20056;-69
2022/01/06 00:38:52;;;;;;;6.47;1.90;;;4.20;73.80;;;;;;5075415;28;20466;-69
2022/01/06 00:41:17;;;;;;;8.80;2.88;;;4.20;73.80;;;;;;5057841;28;20034;-69
2022/01/06 00:43:43;;;;;;;4.88;2.17;;;4.20;74.00;;;;;;5075698;28;20039;-69
2022/01/06 00:46:09;;;;;;;6.10;2.05;;;4.20;74.10;;;;;;5075205;28;20025;-69
2022/01/06 00:48:35;;;;;;;8.23;2.22;;;4.20;74.10;;;;;;5075654;28;20032;-69
2022/01/06 00:51:00;;;;;;;5.32;1.83;;;4.20;74.20;;;;;;5075063;28;20104;-68
2022/01/06 00:53:26;;;;;;;5.80;2.10;;;4.20;74.10;;;;;;5075276;28;20466;-68
2022/01/06 00:55:52;;;;;;;8.32;2.55;;;4.20;74.30;;;;;;5075136;28;20140;-69
2022/01/06 00:58:18;;;;;;;5.68;2.08;;;4.20;74.40;;;;;;5075466;28;20031;-69
2022/01/06 01:00:44;;;;;;;7.57;2.33;;;4.20;74.60;;;;;;5075429;28;20027;-68
2022/01/06 01:03:11;;;;;;;3.17;1.60;;;4.20;74.30;;;;;;5074721;28;20032;-69
2022/01/06 01:05:38;;;;;;;5.57;2.20;;;4.20;74.20;;;;;;5075137;28;20039;-69
2022/01/06 01:08:04;;;;;;;8.55;2.30;;;4.20;74.20;;;;;;5056307;28;20382;-69
2022/01/06 01:10:30;;;;;;;4.38;1.75;;;4.20;74.30;;;;;;5075291;28;20023;-69
2022/01/06 01:12:56;;;;;;;7.32;1.80;;;4.20;74.20;;;;;;5074691;28;20436;-69
2022/01/06 01:15:23;;;;;;;8.25;2.60;;;4.20;74.30;;;;;;5075284;28;20112;-69
2022/01/06 01:17:50;;;;;;;9.32;2.33;;;4.20;74.40;;;;;;5074745;28;20094;-69
2022/01/06 01:20:18;;;;;;;10.18;2.45;;;4.20;74.50;;;;;;5074854;28;20056;-69
2022/01/06 01:22:43;;;;;;;7.78;2.03;;;4.20;74.50;;;;;;5075081;28;20024;-69
2022/01/06 01:25:09;;;;;;;7.50;2.20;;;4.10;74.60;;;;;;5074416;28;20453;-69
2022/01/06 01:27:39;;;;;;;11.05;2.60;;;4.10;74.90;;;;;;5074934;28;20115;-70
2022/01/06 01:30:10;;;;;;;7.22;2.17;;;4.10;75.10;;;;;;5074470;28;20032;-69
2022/01/06 01:32:38;;;;;;;6.28;2.20;;;4.10;75.20;;;;;;5074871;28;20025;-69
2022/01/06 01:35:07;;;;;;;8.00;2.10;;;4.10;75.50;;;;;;5073948;28;20029;-69
2022/01/06 01:37:34;;;;;;;7.03;2.20;;;4.10;75.60;;;;;;5074795;28;20104;-69
2022/01/06 01:40:00;;;;;;;5.35;2.05;;;4.10;75.80;;;;;;5073878;28;20032;-69
2022/01/06 01:42:27;;;;;;;10.00;2.38;;;4.00;76.00;;;;;;5074362;28;20103;-69
2022/01/06 01:44:54;;;;;;;6.97;2.05;;;4.00;76.40;;;;;;5074133;28;20060;-69
2022/01/06 01:47:39;;;;;;;7.07;2.08;;;4.00;76.90;;;;;;5074607;28;20503;-69
2022/01/06 01:50:20;;;;;;;6.45;2.30;;;4.00;77.00;;;;;;5074094;28;20103;-69
2022/01/06 01:52:54;;;;;;;8.25;2.33;;;4.00;77.20;;;;;;5074641;28;20033;-69
2022/01/06 01:55:27;;;;;;;6.22;2.47;;;4.00;77.40;;;;;;5053089;28;20405;-69
2022/01/06 01:57:53;;;;;;;6.53;2.50;;;4.00;77.80;;;;;;5054015;28;20029;-70
2022/01/06 02:00:22;;;;;;;6.22;2.15;;;4.00;77.90;;;;;;5054447;28;20036;-69
2022/01/06 02:02:47;;;;;;;5.80;2.10;;;4.00;78.10;;;;;;5054308;28;20044;-68
2022/01/06 02:05:13;;;;;;;6.72;2.22;;;4.00;77.80;;;;;;5053580;28;20068;-69
2022/01/06 02:07:41;;;;;;;6.78;2.10;;;4.00;78.10;;;;;;5054148;28;20086;-68
2022/01/06 02:10:09;;;;;;;6.75;2.00;;;4.00;78.20;;;;;;5053658;28;20021;-68
2022/01/06 02:12:38;;;;;;;5.50;2.08;;;4.00;78.20;;;;;;5054155;28;20021;-69
2022/01/06 02:15:06;;;;;;;8.85;2.92;;;4.00;78.50;;;;;;5053426;28;20367;-69
2022/01/06 02:17:31;;;;;;;7.30;2.47;;;4.00;78.40;;;;;;5054063;28;20032;-69
2022/01/06 02:20:04;;;;;;;6.68;2.22;;;4.00;78.70;;;;;;5052462;28;20029;-70
2022/01/06 02:22:29;;;;;;;5.28;2.10;;;4.00;78.80;;;;;;5054002;28;20032;-69
2022/01/06 02:24:55;;;;;;;7.97;2.28;;;4.00;78.90;;;;;;5052028;28;20028;-69
2022/01/06 02:27:21;;;;;;;5.47;2.00;;;3.90;79.10;;;;;;5054025;28;20111;-69
2022/01/06 02:29:51;;;;;;;5.13;2.20;;;3.90;79.00;;;;;;5053735;28;20031;-69
2022/01/06 02:32:20;;;;;;;6.78;2.33;;;3.90;79.10;;;;;;5053127;28;20119;-69
2022/01/06 02:34:46;;;;;;;8.10;2.58;;;3.90;79.50;;;;;;5053677;28;20398;-69
2022/01/06 02:37:14;;;;;;;8.20;2.05;;;4.00;79.70;;;;;;5053157;28;20025;-69
2022/01/06 02:39:41;;;;;;;7.38;2.05;;;4.00;79.70;;;;;;5053590;28;20505;-69
2022/01/06 02:42:08;;;;;;;9.02;2.67;;;3.90;79.80;;;;;;5051679;28;20480;-69
2022/01/06 02:44:37;;;;;;;7.57;1.95;;;3.90;80.00;;;;;;5053578;28;20029;-70
2022/01/06 02:47:03;;;;;;;6.55;2.30;;;3.90;80.30;;;;;;5052899;28;20036;-70
2022/01/06 02:49:29;;;;;;;9.75;2.25;;;3.90;80.40;;;;;;5053189;28;20021;-69
2022/01/06 02:51:55;;;;;;;8.98;2.80;;;3.90;80.80;;;;;;5053163;28;20448;-69
2022/01/06 02:54:21;;;;;;;6.55;2.45;;;3.90;80.80;;;;;;5058031;28;20052;-69
2022/01/06 02:56:48;;;;;;;6.70;2.15;;;3.90;80.80;;;;;;5073346;28;20024;-69
2022/01/06 02:59:15;;;;;;;6.38;2.10;;;3.90;80.90;;;;;;5072446;28;20121;-69
2022/01/06 03:01:43;;;;;;;6.35;2.33;;;3.90;80.90;;;;;;5073073;28;20025;-69
2022/01/06 03:04:10;;;;;;;4.03;2.03;;;3.90;81.10;;;;;;5072662;28;20424;-69
2022/01/06 03:06:36;;;;;;;7.10;2.33;;;4.00;81.10;;;;;;5072686;28;20462;-68
2022/01/06 03:09:02;;;;;;;7.07;2.33;;;4.00;81.20;;;;;;5072518;28;20024;-68
2022/01/06 03:11:29;;;;;;;8.02;2.38;;;4.00;81.20;;;;;;5072659;28;20380;-69
2022/01/06 03:13:55;;;;;;;6.82;1.92;;;4.00;81.20;;;;;;5072907;28;20060;-69
2022/01/06 03:16:21;;;;;;;7.72;2.47;;;4.00;81.40;;;;;;5072437;28;20029;-68
2022/01/06 03:18:46;;;;;;;5.65;2.22;;;4.00;81.50;;;;;;5073148;28;20112;-68
2022/01/06 03:21:13;;;;;;;13.52;2.25;;;4.00;81.50;;;;;;5072305;28;20032;-68
2022/01/06 03:23:39;;;;;;;7.30;2.13;;;3.90;81.60;;;;;;5054903;28;20361;-69
2022/01/06 03:26:04;;;;;;;4.13;2.17;;;3.90;81.60;;;;;;5072083;28;20032;-70
2022/01/06 03:28:30;;;;;;;9.63;2.38;;;4.00;81.90;;;;;;5072478;28;20511;-69
2022/01/06 03:30:55;;;;;;;5.65;2.28;;;3.90;82.00;;;;;;5072272;28;20050;-69
2022/01/06 03:33:21;;;;;;;5.90;2.70;;;3.90;82.00;;;;;;5072004;28;20025;-69
2022/01/06 03:36:05;;;;;;;5.45;2.20;;;3.90;82.10;;;;;;5074726;28;20059;-70
2022/01/06 03:38:31;;;;;;;5.70;2.50;;;4.00;82.20;;;;;;5075353;28;20099;-70
2022/01/06 03:40:57;;;;;;;4.90;1.80;;;4.00;82.30;;;;;;5073120;28;20071;-69
2022/01/06 03:43:22;;;;;;;7.40;2.38;;;4.00;82.50;;;;;;5072147;28;20444;-69
2022/01/06 03:45:48;;;;;;;8.80;2.15;;;4.00;82.40;;;;;;5072609;28;20074;-69
2022/01/06 03:48:14;;;;;;;9.60;2.42;;;4.00;82.60;;;;;;5072002;28;20052;-69
2022/01/06 03:50:39;;;;;;;6.57;2.58;;;3.90;82.70;;;;;;5072585;28;20039;-70
2022/01/06 03:53:05;;;;;;;6.35;2.22;;;4.00;82.80;;;;;;5072000;28;20028;-69
2022/01/06 03:55:31;;;;;;;7.60;2.45;;;3.90;82.60;;;;;;5072712;28;20051;-70
2022/01/06 03:57:56;;;;;;;8.00;2.67;;;4.00;82.80;;;;;;5072371;28;20029;-69
2022/01/06 04:00:22;;;;;;;10.68;2.70;;;4.00;82.90;;;;;;5071859;28;20036;-69
2022/01/06 04:02:48;;;;;;;6.03;2.22;;;4.00;82.90;;;;;;5072028;28;20028;-69
2022/01/06 04:05:14;;;;;;;5.88;2.75;;;4.00;82.80;;;;;;5071813;28;20061;-70
2022/01/06 04:07:41;;;;;;;7.32;2.22;;;4.00;82.90;;;;;;5072043;28;20477;-69
2022/01/06 04:10:09;;;;;;;4.93;2.38;;;4.00;82.60;;;;;;5053815;28;20024;-70
2022/01/06 04:12:35;;;;;;;8.07;1.90;;;4.00;82.60;;;;;;5072306;28;20036;-69
2022/01/06 04:15:03;;;;;;;5.55;1.92;;;4.00;82.30;;;;;;5071850;28;20024;-69
2022/01/06 04:17:29;;;;;;;5.07;2.17;;;4.00;82.40;;;;;;5072271;28;20028;-69
2022/01/06 04:19:55;;;;;;;6.93;2.08;;;4.00;82.60;;;;;;5072163;28;20031;-69
2022/01/06 04:22:20;;;;;;;6.25;2.30;;;4.00;82.50;;;;;;5071716;28;20062;-69
2022/01/06 04:24:46;;;;;;;9.23;2.15;;;4.00;83.10;;;;;;5072096;28;20040;-69
2022/01/06 04:27:12;;;;;;;4.32;2.15;;;4.10;82.50;;;;;;5071677;28;20028;-69
2022/01/06 04:29:37;;;;;;;6.85;2.25;;;4.10;82.70;;;;;;5072181;28;20032;-69
2022/01/06 04:32:03;;;;;;;10.05;2.25;;;4.00;82.90;;;;;;5071889;28;20036;-69
2022/01/06 04:34:29;;;;;;;7.68;2.40;;;4.10;82.80;;;;;;5054248;28;20123;-69
2022/01/06 04:36:57;;;;;;;5.97;2.22;;;4.10;83.00;;;;;;5072016;28;20063;-69
2022/01/06 04:39:23;;;;;;;4.55;2.20;;;4.10;83.40;;;;;;5071576;28;20158;-69
2022/01/06 04:41:49;;;;;;;4.43;2.30;;;4.00;83.40;;;;;;5072081;28;20103;-69
2022/01/06 04:44:15;;;;;;;6.10;2.25;;;4.00;83.80;;;;;;5073931;28;20032;-69
2022/01/06 04:46:40;;;;;;;5.82;2.80;;;4.00;83.90;;;;;;5075730;28;20488;-69
2022/01/06 04:49:07;;;;;;;4.30;2.10;;;4.10;84.10;;;;;;5075481;28;20457;-69
2022/01/06 04:51:32;;;;;;;5.60;2.92;;;4.00;84.30;;;;;;5075657;28;20029;-69
2022/01/06 04:53:58;;;;;;;9.30;2.70;;;4.10;84.60;;;;;;5075319;28;20033;-69
2022/01/06 04:56:24;;;;;;;6.65;2.33;;;4.00;84.40;;;;;;5075032;28;20301;-69
2022/01/06 04:58:50;;;;;;;9.02;2.35;;;4.00;84.60;;;;;;5075452;28;20469;-69
2022/01/06 05:01:16;;;;;;;6.35;2.47;;;4.00;84.90;;;;;;5074960;28;20107;-70
2022/01/06 05:03:41;;;;;;;4.10;2.28;;;4.00;85.10;;;;;;5075132;28;20032;-69
2022/01/06 05:06:07;;;;;;;7.18;2.58;;;4.00;85.10;;;;;;5074609;28;20025;-69
2022/01/06 05:08:33;;;;;;;6.63;2.95;;;4.10;85.30;;;;;;5075078;28;20099;-70
2022/01/06 05:10:59;;;;;;;6.75;2.60;;;4.00;85.40;;;;;;5075392;28;20063;-70
2022/01/06 05:13:24;;;;;;;7.13;2.70;;;4.00;85.40;;;;;;5074759;28;20029;-70
2022/01/06 05:15:50;;;;;;;8.43;3.10;;;4.10;85.30;;;;;;5079382;28;20021;-70
2022/01/06 05:18:16;;;;;;;8.13;2.35;;;4.10;85.40;;;;;;5078310;28;20104;-69
2022/01/06 05:20:42;;;;;;;5.65;2.65;;;4.10;85.60;;;;;;5077840;28;20107;-68
2022/01/06 05:23:10;;;;;;;9.15;2.38;;;4.10;85.70;;;;;;5075259;28;20017;-68
2022/01/06 05:25:36;;;;;;;5.90;2.90;;;4.10;86.10;;;;;;5074826;28;20039;-69
2022/01/06 05:28:03;;;;;;;7.03;2.80;;;4.10;86.20;;;;;;5075303;28;20028;-68
2022/01/06 05:30:28;;;;;;;8.38;2.67;;;4.10;86.40;;;;;;5075763;28;20465;-69
2022/01/06 05:32:54;;;;;;;6.53;2.55;;;4.10;86.50;;;;;;5075646;28;20036;-69
2022/01/06 05:35:20;;;;;;;5.78;2.75;;;4.00;86.60;;;;;;5074307;28;20455;-69
2022/01/06 05:37:46;;;;;;;5.47;2.58;;;4.00;86.80;;;;;;5074527;28;20025;-70
2022/01/06 05:40:13;;;;;;;5.53;2.30;;;4.00;86.80;;;;;;5074293;28;20343;-70
2022/01/06 05:42:38;;;;;;;4.95;2.53;;;4.00;87.30;;;;;;5074673;28;20052;-69
2022/01/06 05:45:05;;;;;;;6.50;3.15;;;4.00;87.50;;;;;;5074527;28;20479;-69
2022/01/06 05:47:31;;;;;;;6.63;2.60;;;4.00;87.70;;;;;;5056329;28;20127;-69
2022/01/06 05:49:56;;;;;;;6.90;2.80;;;4.00;87.80;;;;;;5074600;28;20096;-69
2022/01/06 05:52:22;;;;;;;9.70;3.05;;;4.00;87.90;;;;;;5074103;28;20029;-69
2022/01/06 05:54:48;;;;;;;6.20;3.03;;;4.00;88.20;;;;;;5073976;28;20110;-69
2022/01/06 05:57:15;;;;;;;5.55;3.10;;;3.90;88.30;;;;;;5074020;28;20107;-69
2022/01/06 05:59:41;;;;;;;9.45;3.13;;;3.90;88.40;;;;;;5074390;28;20031;-69
2022/01/06 06:02:07;;;;;;;9.00;3.15;;;3.90;88.70;;;;;;5074080;28;20021;-69
2022/01/06 06:04:33;;;;;;;6.53;2.72;;;3.90;88.80;;;;;;5073406;28;20072;-69
2022/01/06 06:06:59;;;;;;;7.63;3.25;;;3.90;89.00;;;;;;5074293;28;20029;-70
2022/01/06 06:09:24;;;;;;;6.82;2.75;;;3.90;89.20;;;;;;5073639;28;20078;-69
2022/01/06 06:11:50;;;;;;;7.55;2.90;;;3.90;89.20;;;;;;5073862;28;20024;-69
2022/01/06 06:14:16;;;;;;;6.90;3.22;;;3.90;89.30;;;;;;5073532;28;20115;-69
2022/01/06 06:16:42;;;;;;;6.57;2.75;;;3.90;89.70;;;;;;5073915;28;20032;-69
2022/01/06 06:19:08;;;;;;;5.80;2.97;;;3.90;89.30;;;;;;5073986;28;20050;-69
2022/01/06 06:21:33;;;;;;;5.90;2.42;;;3.90;89.30;;;;;;5073441;28;20024;-69
2022/01/06 06:23:59;;;;;;;7.85;3.17;;;3.90;89.30;;;;;;5055846;28;20028;-69
2022/01/06 06:26:25;;;;;;;7.05;3.00;;;3.90;89.30;;;;;;5073070;28;20039;-69
2022/01/06 06:28:50;;;;;;;8.20;3.08;;;3.90;89.10;;;;;;5073410;28;20031;-69
2022/01/06 06:31:16;;;;;;;7.32;2.90;;;3.90;89.50;;;;;;5073149;28;20078;-69
2022/01/06 06:33:42;;;;;;;5.00;2.80;;;3.90;88.90;;;;;;5073123;28;20040;-69
2022/01/06 06:36:07;;;;;;;6.68;2.70;;;3.90;89.00;;;;;;5073727;28;20458;-69
2022/01/06 06:38:33;;;;;;;8.00;2.83;;;3.90;88.90;;;;;;5074681;28;20082;-70
2022/01/06 06:40:59;;;;;;;6.60;3.20;;;3.90;88.80;;;;;;5077396;28;20028;-70
2022/01/06 06:43:24;;;;;;;5.80;2.70;;;3.90;88.40;;;;;;5055692;28;20037;-69
2022/01/06 06:45:50;;;;;;;6.80;2.95;;;3.90;88.20;;;;;;5072782;28;20028;-70
2022/01/06 06:48:16;;;;;;;4.80;2.80;;;3.90;88.00;;;;;;5072848;28;20025;-70
2022/01/06 06:50:42;;;;;;;8.05;2.72;;;3.90;87.90;;;;;;5073162;28;20103;-70
2022/01/06 06:53:07;;;;;;;8.18;2.88;;;3.90;87.80;;;;;;5073378;28;20032;-69
2022/01/06 06:55:35;;;;;;;8.95;2.60;;;3.90;88.00;;;;;;5072774;28;20419;-69
2022/01/06 06:58:02;;;;;;;6.00;2.80;;;3.90;87.80;;;;;;5072165;28;20081;-69
2022/01/06 07:00:28;;;;;;;7.20;2.90;;;4.00;87.70;;;;;;5072543;28;20087;-69
2022/01/06 07:02:54;;;;;;;6.43;3.00;;;4.00;87.50;;;;;;5055275;28;20362;-69
2022/01/06 07:05:20;;;;;;;6.28;3.08;;;4.00;87.80;;;;;;5071900;28;20032;-69
2022/01/06 07:07:46;;;;;;;8.13;3.03;;;4.00;87.80;;;;;;5072742;28;20024;-69
2022/01/06 07:10:13;;;;;;;5.90;2.83;;;4.00;87.80;;;;;;5073066;28;20577;-70
2022/01/06 07:12:43;;;;;;;7.32;2.63;;;4.00;87.80;;;;;;5072403;28;20020;-69
2022/01/06 07:15:28;;;;;;;5.32;2.65;;;4.00;87.60;;;;;;5072804;28;20028;-69
2022/01/06 07:17:54;;;;;;;8.02;2.67;;;4.00;87.60;;;;;;5072502;28;20404;-69
2022/01/06 07:20:20;;;;;;;8.90;2.80;;;4.00;87.40;;;;;;5072574;28;20035;-69
2022/01/06 07:22:45;;;;;;;9.23;2.90;;;4.00;87.80;;;;;;5072985;28;20473;-69
2022/01/06 07:25:11;;;;;;;7.05;2.92;;;4.00;87.90;;;;;;5072738;28;20069;-69
2022/01/06 07:27:37;;;;;;;5.93;2.78;;;4.00;88.00;;;;;;5072177;28;20034;-69
2022/01/06 07:30:04;;;;;;;4.72;2.65;;;4.00;88.10;;;;;;5072522;28;20389;-70
2022/01/06 07:32:30;;;;;;;8.32;3.40;;;4.10;88.10;;;;;;5072172;28;20032;-70
2022/01/06 07:34:56;;;;;;;6.60;3.00;;;4.10;88.10;;;;;;5073046;28;20043;-69
2022/01/06 07:37:22;;;;;;;6.82;2.95;;;4.10;88.10;;;;;;5071783;28;20483;-69
2022/01/06 07:39:47;;;;;;;12.50;3.17;;;4.10;88.10;;;;;;5072142;28;20103;-69
2022/01/06 07:42:13;;;;;;;8.63;3.03;;;4.10;88.20;;;;;;5054737;28;20073;-69
2022/01/06 07:44:39;;;;;;;7.35;2.92;;;4.10;87.90;;;;;;5071939;28;20025;-69
2022/01/06 07:47:05;;;;;;;6.88;2.75;;;4.20;87.70;;;;;;5072485;28;20162;-69
2022/01/06 07:49:30;;;;;;;6.85;3.38;;;4.20;87.80;;;;;;5071780;28;20093;-69
2022/01/06 07:51:56;;;;;;;7.97;3.03;;;4.20;87.80;;;;;;5072414;28;20033;-69
2022/01/06 07:54:22;;;;;;;9.35;2.55;;;4.30;87.80;;;;;;5071687;28;20057;-69
2022/01/06 07:56:47;;;;;;;7.97;2.80;;;4.20;86.90;;;;;;5072319;28;20020;-69
2022/01/06 07:59:13;;;;;;;9.60;2.78;;;4.30;87.00;;;;;;5072388;28;20025;-70
2022/01/06 08:01:40;;;;;;;7.35;2.42;;;4.30;86.70;;;;;;5071794;28;20108;-69
2022/01/06 08:04:06;;;;;;;6.32;2.60;;;4.30;86.40;;;;;;5072235;28;20032;-69
2022/01/06 08:06:31;;;;;;;10.38;2.70;;;4.30;85.90;;;;;;5070932;28;20028;-68
2022/01/06 08:08:57;;;;;;;6.40;2.83;;;4.40;85.90;;;;;;5071940;28;20469;-69
2022/01/06 08:11:23;;;;;;;4.53;2.45;;;4.40;86.10;;;;;;5071898;28;20024;-69
2022/01/06 08:14:08;;;;;;;6.57;2.35;;;4.40;85.60;;;;;;5072239;28;20036;-70
2022/01/06 08:16:34;;;;;;;6.43;2.40;;;4.50;85.10;;;;;;5071555;28;20029;-70
2022/01/06 08:18:59;;;;;;;6.78;2.80;;;4.50;85.10;;;;;;5074499;28;20421;-70
2022/01/06 08:21:25;;;;;;;5.72;2.53;;;4.50;85.00;;;;;;5075759;28;20020;-70
2022/01/06 08:23:50;;;;;;;5.70;2.50;;;4.50;84.60;;;;;;5076124;28;20032;-69
2022/01/06 08:26:16;;;;;;;7.07;2.47;;;4.60;84.70;;;;;;5076135;28;20377;-69
2022/01/06 08:28:46;;;;;;;8.77;2.60;;;4.60;84.40;;;;;;5075590;28;20020;-68
2022/01/06 08:31:13;;;;;;;5.60;2.20;;;4.60;83.70;;;;;;5076184;28;20077;-70
2022/01/06 08:33:39;;;;;;;7.28;2.63;;;4.60;82.80;;;;;;5075228;28;20035;-70
2022/01/06 08:36:05;;;;;;;4.88;2.20;;;4.70;82.80;;;;;;5076097;28;20025;-69
2022/01/06 08:38:31;;;;;;;6.07;2.90;;;4.70;82.90;;;;;;5075247;28;20372;-69
2022/01/06 08:40:56;;;;;;;6.15;2.58;;;4.80;82.30;;;;;;5075705;28;20025;-70
2022/01/06 08:43:27;;;;;;;4.57;2.20;;;4.80;81.70;;;;;;5057328;28;20028;-68
2022/01/06 08:45:57;;;;;;;3.75;2.15;;;4.80;81.60;;;;;;5075190;28;20036;-69
2022/01/06 08:48:42;;;;;;;5.55;2.22;;;4.90;81.40;;;;;;5057109;28;20086;-69
2022/01/06 08:51:07;;;;;;;4.13;2.00;;;4.90;80.80;;;;;;5057467;28;20380;-69
2022/01/06 08:53:33;;;;;;;3.10;1.95;;;4.90;80.40;;;;;;5075339;28;20033;-69
2022/01/06 08:55:59;;;;;;;5.70;2.25;;;5.00;80.50;;;;;;5075752;28;20049;-69
2022/01/06 08:58:24;;;;;;;5.13;2.53;;;4.90;79.70;;;;;;5074742;28;20103;-69
2022/01/06 09:00:50;;;;;;;3.63;1.98;;;5.00;80.30;;;;;;5074809;28;20020;-70
2022/01/06 09:03:16;;;;;;;3.95;2.22;;;5.00;80.10;;;;;;5075401;28;20029;-69
2022/01/06 09:05:41;;;;;;;3.33;1.85;;;5.00;80.20;;;;;;5074825;28;20457;-69
2022/01/06 09:08:08;;;;;;;6.70;2.38;;;5.00;80.00;;;;;;5057428;28;20036;-69
2022/01/06 09:10:34;;;;;;;4.03;2.40;;;5.00;79.90;;;;;;5074797;28;20056;-69
2022/01/06 09:13:03;;;;;;;4.25;2.22;;;5.00;80.10;;;;;;5075282;28;20454;-69
2022/01/06 09:15:47;;;;;;;6.43;2.80;;;5.00;80.40;;;;;;5074741;28;20025;-69
2022/01/06 09:18:13;;;;;;;8.13;2.60;;;5.00;80.70;;;;;;5074803;28;20385;-70
2022/01/06 09:20:39;;;;;;;5.72;2.55;;;5.00;80.20;;;;;;5074667;28;20028;-69
2022/01/06 09:23:05;;;;;;;4.28;2.15;;;5.00;80.80;;;;;;5075175;28;20493;-68
2022/01/06 09:25:30;;;;;;;7.60;2.78;;;5.00;80.70;;;;;;5074239;28;20055;-69
2022/01/06 09:27:56;;;;;;;5.15;2.17;;;5.00;80.80;;;;;;5074731;28;20067;-68
2022/01/06 09:30:25;;;;;;;5.35;2.22;;;5.00;80.90;;;;;;5074241;28;20052;-68
2022/01/06 09:32:51;;;;;;;6.63;2.75;;;5.00;80.90;;;;;;5074661;28;20033;-69
2022/01/06 09:35:17;;;;;;;7.22;2.70;;;5.00;81.20;;;;;;5074774;28;20029;-68
2022/01/06 09:37:43;;;;;;;7.82;4.10;;;5.10;85.60;;;;;;5074252;28;20032;-68
2022/01/06 09:40:09;;;;;;;5.28;2.75;;;5.20;88.80;;;;;;5074469;28;20137;-68
2022/01/06 09:42:36;;;;;;;7.30;2.80;;;5.40;87.70;;;;;;5074188;28;20032;-69
2022/01/06 09:45:03;;;;;;;9.23;3.40;;;5.40;85.40;;;;;;5074304;28;20036;-69
2022/01/06 09:47:32;;;;;;;5.50;3.20;;;5.50;85.90;;;;;;5074087;28;20112;-69
2022/01/06 09:49:58;;;;;;;7.68;3.75;;;5.60;86.70;;;;;;5075331;28;20052;-69
2022/01/06 09:52:24;;;;;;;8.85;3.45;;;5.60;85.40;;;;;;5075535;28;20484;-70
2022/01/06 09:54:50;;;;;;;6.25;2.90;;;5.70;84.10;;;;;;5074307;28;20079;-69
2022/01/06 09:57:15;;;;;;;15.10;3.20;;;5.70;82.00;;;;;;5074648;28;20106;-69
2022/01/06 09:59:44;;;;;;;6.47;3.55;;;5.80;85.90;;;;;;5074043;28;20032;-68
2022/01/06 10:02:16;;;;;;;5.18;3.00;;;5.80;84.40;;;;;;5074266;28;20169;-69
2022/01/06 10:04:43;;;;;;;5.25;2.60;;;5.90;84.10;;;;;;5073792;28;20036;-71
2022/01/06 10:07:10;;;;;;;4.47;2.67;;;6.00;81.80;;;;;;5074188;28;20040;-68
2022/01/06 10:09:38;;;;;;;4.18;2.28;;;6.10;82.30;;;;;;5055765;28;20146;-70
2022/01/06 10:12:11;;;;;;;5.50;2.67;;;6.10;80.90;;;;;;5074017;28;20028;-69
2022/01/06 10:14:43;;;;;;;5.72;2.42;;;6.20;81.50;;;;;;5073614;28;20040;-72
2022/01/06 10:17:13;;;;;;;4.43;2.05;;;6.30;82.40;;;;;;5074193;28;20105;-72
2022/01/06 10:19:43;;;;;;;3.65;2.10;;;6.40;77.90;;;;;;5073874;28;20048;-69
2022/01/06 10:22:18;;;;;;;5.07;2.45;;;6.50;76.20;;;;;;5074129;28;20032;-71
2022/01/06 10:24:46;;;;;;;4.70;2.22;;;6.50;74.90;;;;;;5073895;28;20039;-71
2022/01/06 10:27:15;;;;;;;4.30;2.10;;;6.50;74.90;;;;;;5073300;28;20039;-69
2022/01/06 10:29:43;;;;;;;4.53;2.15;;;6.50;74.50;;;;;;5073676;28;20028;-69
2022/01/06 10:32:13;;;;;;;4.80;2.08;;;6.60;74.40;;;;;;5055782;28;20111;-70
2022/01/06 10:34:45;;;;;;;5.38;1.80;;;6.70;74.50;;;;;;5072915;28;20032;-69
2022/01/06 10:37:22;;;;;;;3.22;1.90;;;6.80;73.70;;;;;;5073734;28;20020;-69
2022/01/06 10:39:50;;;;;;;3.60;1.67;;;6.90;72.50;;;;;;5072857;28;20025;-69
2022/01/06 10:42:16;;;;;;;5.07;1.70;;;6.90;72.90;;;;;;5072825;28;20028;-69
2022/01/06 10:44:49;;;;;;;4.35;2.15;;;6.90;72.70;;;;;;5072939;28;20039;-70
2022/01/06 10:47:48;;;;;;;3.55;1.95;;;6.90;72.00;;;;;;5075515;28;20414;-69
2022/01/06 10:50:15;;;;;;;6.28;1.90;;;7.00;72.10;;;;;;5040049;28;20063;-69
2022/01/06 10:52:47;;;;;;;3.80;1.70;;;6.90;72.20;;;;;;5074177;28;20025;-68
2022/01/06 10:55:36;;;;;;;4.10;2.00;;;7.00;71.90;;;;;;5074314;28;20110;-69
2022/01/06 10:58:04;;;;;;;4.28;1.85;;;7.00;71.50;;;;;;5074080;28;20121;-68
2022/01/06 11:00:32;;;;;;;2.58;1.63;;;7.00;72.30;;;;;;5073316;28;20073;-68
2022/01/06 11:03:27;;;;;;;3.60;1.75;;;7.00;71.80;;;;;;5072971;28;20052;-68
2022/01/06 11:05:55;;;;;;;5.15;2.08;;;7.00;71.20;;;;;;5071466;28;20113;-69
2022/01/06 11:08:29;;;;;;;3.50;1.95;;;7.10;71.40;;;;;;5073939;28;20033;-70
2022/01/06 11:13:41;;;;;;;3.97;1.85;;;7.20;71.10;;;;;;5072571;28;20035;-69
2022/01/06 11:16:09;;;;;;;3.83;2.08;;;7.20;70.20;;;;;;5072681;28;20477;-68
2022/01/06 11:18:39;;;;;;;4.00;1.73;;;7.30;70.80;;;;;;5072114;28;20551;-66
2022/01/06 11:21:14;;;;;;;5.65;2.22;;;7.30;71.00;;;;;;5072828;28;20039;-68
2022/01/06 11:23:40;;;;;;;3.42;1.98;;;7.20;70.70;;;;;;5072389;28;20081;-68
2022/01/06 11:26:09;;;;;;;4.20;1.95;;;7.30;71.00;;;;;;5072878;28;20507;-68
2022/01/06 11:28:35;;;;;;;5.47;2.25;;;7.40;70.00;;;;;;5054155;28;20457;-67
2022/01/06 11:31:19;;;;;;;4.88;2.00;;;7.30;69.80;;;;;;5072783;28;20162;-68
2022/01/06 11:33:47;;;;;;;5.18;2.00;;;7.30;69.80;;;;;;5071541;28;20481;-68
2022/01/06 11:36:32;;;;;;;4.78;2.10;;;7.30;69.90;;;;;;5072141;28;20028;-68
2022/01/06 11:38:59;;;;;;;7.82;2.25;;;7.20;69.70;;;;;;5072722;28;20021;-68
2022/01/06 11:41:38;;;;;;;4.57;1.95;;;7.10;70.30;;;;;;5072841;28;20085;-69
2022/01/06 11:44:16;;;;;;;5.10;2.05;;;7.00;70.70;;;;;;5071623;28;20028;-69
2022/01/06 11:46:44;;;;;;;5.13;1.92;;;7.00;70.60;;;;;;5071930;28;20033;-69
2022/01/06 11:49:10;;;;;;;4.07;2.15;;;6.80;70.50;;;;;;5072098;28;20489;-68
2022/01/06 11:51:37;;;;;;;8.18;2.22;;;6.80;71.10;;;;;;5071389;28;20029;-68
2022/01/06 11:54:17;;;;;;;4.10;2.10;;;6.70;71.20;;;;;;5072079;28;20036;-68
2022/01/06 11:56:52;;;;;;;4.40;2.13;;;6.70;71.70;;;;;;5071710;28;20112;-68
2022/01/06 11:59:32;;;;;;;7.30;2.38;;;6.60;71.90;;;;;;5072231;28;20470;-68
2022/01/06 12:01:58;;;;;;;5.32;2.20;;;6.60;71.70;;;;;;5071861;28;20029;-68
2022/01/06 12:04:25;;;;;;;5.15;1.98;;;6.60;71.60;;;;;;5072328;28;20028;-68
2022/01/06 12:07:06;;;;;;;7.13;2.30;;;6.50;72.00;;;;;;5071839;28;20032;-68
2022/01/06 12:09:32;;;;;;;5.30;2.57;;;6.50;71.90;;;;;;5072458;28;20031;-67
2022/01/06 12:12:06;;;;;;;5.45;2.20;;;6.40;73.00;;;;;;5071827;28;20389;-68
2022/01/06 12:14:33;;;;;;;6.07;2.10;;;6.30;73.10;;;;;;5072302;28;20149;-67
2022/01/06 12:17:08;;;;;;;5.65;2.58;;;6.30;73.90;;;;;;5072178;28;20427;-67
2022/01/06 12:19:34;;;;;;;3.20;1.90;;;6.20;74.30;;;;;;5072069;28;20437;-68
2022/01/06 12:22:01;;;;;;;5.32;2.40;;;6.20;74.80;;;;;;5072391;28;20028;-69
2022/01/06 12:24:27;;;;;;;6.47;2.53;;;6.10;75.00;;;;;;5072311;28;20032;-68
2022/01/06 12:26:54;;;;;;;7.50;2.97;;;6.10;75.60;;;;;;5071629;28;20032;-67
2022/01/06 12:29:26;;;;;;;7.97;2.50;;;6.10;76.60;;;;;;5072049;28;20024;-67
2022/01/06 12:32:02;;;;;;;7.22;2.72;;;6.00;77.30;;;;;;5071796;28;20024;-69
2022/01/06 12:34:28;;;;;;;5.90;2.83;;;6.00;78.10;;;;;;5071856;28;20047;-67
2022/01/06 12:36:53;;;;;;;9.18;2.60;;;6.00;78.50;;;;;;5071265;28;20469;-68
2022/01/06 12:39:22;;;;;;;7.53;2.70;;;6.00;79.10;;;;;;5071838;28;20465;-68
2022/01/06 12:41:49;;;;;;;8.52;2.55;;;6.00;79.80;;;;;;5071588;28;20020;-67
2022/01/06 12:44:24;;;;;;;4.30;2.72;;;6.00;79.90;;;;;;5071968;28;20037;-68
2022/01/06 12:46:50;;;;;;;5.18;3.05;;;6.00;80.30;;;;;;5071702;28;20029;-68
2022/01/06 12:49:19;;;;;;;4.72;2.42;;;6.00;80.50;;;;;;5054407;28;20036;-68
2022/01/06 12:51:46;;;;;;;5.80;2.30;;;6.00;81.50;;;;;;5071461;28;20095;-68
2022/01/06 12:54:16;;;;;;;4.45;2.10;;;6.00;81.50;;;;;;5071411;28;20064;-68
2022/01/06 12:57:02;;;;;;;5.18;2.10;;;6.00;81.90;;;;;;5071249;28;20028;-68
2022/01/06 12:59:34;;;;;;;7.68;2.20;;;6.00;81.10;;;;;;5071758;28;20454;-68
2022/01/06 13:02:12;;;;;;;4.38;2.10;;;6.10;79.70;;;;;;5071303;28;20369;-68
2022/01/06 13:04:49;;;;;;;3.63;1.55;;;6.10;78.90;;;;;;5072648;28;20125;-68
2022/01/06 13:07:16;;;;;;;5.15;1.90;;;6.10;76.90;;;;;;5075296;28;20032;-68
2022/01/06 13:09:42;;;;;;;2.97;1.38;;;6.10;73.40;;;;;;5074771;28;20024;-67
2022/01/06 13:12:25;;;;;;;2.38;1.48;;;6.10;72.20;;;;;;5075355;28;20039;-69
2022/01/06 13:14:52;;;;;;;4.00;1.30;;;6.10;71.80;;;;;;5074856;28;20029;-69